sensor_id;sensor_type;location;lat;lon;timestamp;temperature;humidity
3940;DHT22;1984;48.312;9.244;2022-10-22T00:00:22;12.20;99.90
3940;DHT22;1984;48.312;9.244;2022-10-22T00:02:48;12.20;99.90
3940;DHT22;1984;48.312;9.244;2022-10-22T00:05:14;12.20;99.90
3940;DHT22;1984;48.312;9.244;2022-10-22T00:07:39;12.20;99.90
3940;DHT22;1984;48.312;9.244;2022-10-22T00:10:06;12.20;99.90
3940;DHT22;1984;48.312;9.244;2022-10-22T00:12:32;12.20;99.90
3940;DHT22;1984;48.312;9.244;2022-10-22T00:14:58;12.20;99.90
3940;DHT22;1984;48.312;9.244;2022-10-22T00:17:23;12.20;99.90
3940;DHT22;1984;48.312;9.244;2022-10-22T00:19:49;12.20;99.90
3940;DHT22;1984;48.312;9.244;2022-10-22T00:22:14;12.20;99.90
3940;DHT22;1984;48.312;9.244;2022-10-22T00:24:40;12.20;99.90
3940;DHT22;1984;48.312;9.244;2022-10-22T00:27:08;12.20;99.90
3940;DHT22;1984;48.312;9.244;2022-10-22T00:29:34;12.10;99.90
3940;DHT22;1984;48.312;9.244;2022-10-22T00:32:00;12.20;99.90
3940;DHT22;1984;48.312;9.244;2022-10-22T00:34:26;12.20;99.90
3940;DHT22;1984;48.312;9.244;2022-10-22T00:36:52;12.10;99.90
3940;DHT22;1984;48.312;9.244;2022-10-22T00:39:20;12.10;99.90
3940;DHT22;1984;48.312;9.244;2022-10-22T00:41:47;12.10;99.90
3940;DHT22;1984;48.312;9.244;2022-10-22T00:47:17;12.00;99.90
3940;DHT22;1984;48.312;9.244;2022-10-22T00:49:45;12.00;99.90
3940;DHT22;1984;48.312;9.244;2022-10-22T00:52:11;11.90;99.90
3940;DHT22;1984;48.312;9.244;2022-10-22T00:54:37;11.90;99.90
3940;DHT22;1984;48.312;9.244;2022-10-22T00:57:04;12.00;99.90
3940;DHT22;1984;48.312;9.244;2022-10-22T00:59:30;12.00;99.90
3940;DHT22;1984;48.312;9.244;2022-10-22T01:01:56;12.10;99.90
3940;DHT22;1984;48.312;9.244;2022-10-22T01:04:21;12.10;99.90
3940;DHT22;1984;48.312;9.244;2022-10-22T01:06:47;12.00;99.90
3940;DHT22;1984;48.312;9.244;2022-10-22T01:12:22;11.90;99.90
3940;DHT22;1984;48.312;9.244;2022-10-22T01:17:47;11.90;99.90
3940;DHT22;1984;48.312;9.244;2022-10-22T01:20:38;12.00;99.90
3940;DHT22;1984;48.312;9.244;2022-10-22T01:28:40;12.00;99.90
3940;DHT22;1984;48.312;9.244;2022-10-22T01:31:10;12.00;99.90
3940;DHT22;1984;48.312;9.244;2022-10-22T01:33:38;12.00;99.90
3940;DHT22;1984;48.312;9.244;2022-10-22T01:36:04;12.00;99.90
3940;DHT22;1984;48.312;9.244;2022-10-22T01:38:30;12.00;99.90
3940;DHT22;1984;48.312;9.244;2022-10-22T01:40:57;12.00;99.90
3940;DHT22;1984;48.312;9.244;2022-10-22T01:43:23;12.00;99.90
3940;DHT22;1984;48.312;9.244;2022-10-22T01:45:56;12.00;99.90
3940;DHT22;1984;48.312;9.244;2022-10-22T01:53:53;11.90;99.90
3940;DHT22;1984;48.312;9.244;2022-10-22T01:59:56;11.80;99.90
3940;DHT22;1984;48.312;9.244;2022-10-22T02:07:43;11.80;99.90
3940;DHT22;1984;48.312;9.244;2022-10-22T02:10:11;11.80;99.90
3940;DHT22;1984;48.312;9.244;2022-10-22T02:12:39;11.80;99.90
3940;DHT22;1984;48.312;9.244;2022-10-22T02:15:07;11.80;99.90
3940;DHT22;1984;48.312;9.244;2022-10-22T02:17:34;11.80;99.90
3940;DHT22;1984;48.312;9.244;2022-10-22T02:20:12;11.80;99.90
3940;DHT22;1984;48.312;9.244;2022-10-22T02:22:40;11.80;99.90
3940;DHT22;1984;48.312;9.244;2022-10-22T02:25:07;11.80;99.90
3940;DHT22;1984;48.312;9.244;2022-10-22T02:27:46;11.80;99.90
3940;DHT22;1984;48.312;9.244;2022-10-22T02:30:16;11.80;99.90
3940;DHT22;1984;48.312;9.244;2022-10-22T02:32:53;11.80;99.90
3940;DHT22;1984;48.312;9.244;2022-10-22T02:35:22;11.80;99.90
3940;DHT22;1984;48.312;9.244;2022-10-22T02:37:50;11.80;99.90
3940;DHT22;1984;48.312;9.244;2022-10-22T02:40:17;11.80;99.90
3940;DHT22;1984;48.312;9.244;2022-10-22T02:42:43;11.80;99.90
3940;DHT22;1984;48.312;9.244;2022-10-22T02:45:11;11.70;99.90
3940;DHT22;1984;48.312;9.244;2022-10-22T02:47:36;11.70;99.90
3940;DHT22;1984;48.312;9.244;2022-10-22T02:50:02;11.60;99.90
3940;DHT22;1984;48.312;9.244;2022-10-22T02:52:28;11.60;99.90
3940;DHT22;1984;48.312;9.244;2022-10-22T02:54:53;11.60;99.90
3940;DHT22;1984;48.312;9.244;2022-10-22T02:57:19;11.50;99.90
3940;DHT22;1984;48.312;9.244;2022-10-22T02:59:44;11.50;99.90
3940;DHT22;1984;48.312;9.244;2022-10-22T03:02:10;11.50;99.90
3940;DHT22;1984;48.312;9.244;2022-10-22T03:04:35;11.50;99.90
3940;DHT22;1984;48.312;9.244;2022-10-22T03:07:01;11.50;99.90
3940;DHT22;1984;48.312;9.244;2022-10-22T03:09:26;11.50;99.90
3940;DHT22;1984;48.312;9.244;2022-10-22T03:11:52;11.60;99.90
3940;DHT22;1984;48.312;9.244;2022-10-22T03:14:17;11.60;99.90
3940;DHT22;1984;48.312;9.244;2022-10-22T03:16:43;11.60;99.90
3940;DHT22;1984;48.312;9.244;2022-10-22T03:19:09;11.60;99.90
3940;DHT22;1984;48.312;9.244;2022-10-22T03:21:51;11.60;99.90
3940;DHT22;1984;48.312;9.244;2022-10-22T03:24:23;11.60;99.90
3940;DHT22;1984;48.312;9.244;2022-10-22T03:26:51;11.70;99.90
3940;DHT22;1984;48.312;9.244;2022-10-22T03:29:18;11.60;99.90
3940;DHT22;1984;48.312;9.244;2022-10-22T03:31:44;11.70;99.90
3940;DHT22;1984;48.312;9.244;2022-10-22T03:34:10;11.70;99.90
3940;DHT22;1984;48.312;9.244;2022-10-22T03:36:38;11.70;99.90
3940;DHT22;1984;48.312;9.244;2022-10-22T03:39:05;11.70;99.90
3940;DHT22;1984;48.312;9.244;2022-10-22T03:41:31;11.70;99.90
3940;DHT22;1984;48.312;9.244;2022-10-22T03:43:57;11.70;99.90
3940;DHT22;1984;48.312;9.244;2022-10-22T03:46:24;11.70;99.90
3940;DHT22;1984;48.312;9.244;2022-10-22T03:48:49;11.60;99.90
3940;DHT22;1984;48.312;9.244;2022-10-22T03:51:15;11.60;99.90
3940;DHT22;1984;48.312;9.244;2022-10-22T03:53:40;11.60;99.90
3940;DHT22;1984;48.312;9.244;2022-10-22T03:56:10;11.50;99.90
3940;DHT22;1984;48.312;9.244;2022-10-22T03:58:37;11.50;99.90
3940;DHT22;1984;48.312;9.244;2022-10-22T04:01:08;11.50;99.90
3940;DHT22;1984;48.312;9.244;2022-10-22T04:03:35;11.50;99.90
3940;DHT22;1984;48.312;9.244;2022-10-22T04:06:02;11.50;99.90
3940;DHT22;1984;48.312;9.244;2022-10-22T04:08:28;11.50;99.90
3940;DHT22;1984;48.312;9.244;2022-10-22T04:10:54;11.50;99.90
3940;DHT22;1984;48.312;9.244;2022-10-22T04:13:19;11.50;99.90
3940;DHT22;1984;48.312;9.244;2022-10-22T04:15:45;11.40;99.90
3940;DHT22;1984;48.312;9.244;2022-10-22T04:18:10;11.30;99.90
3940;DHT22;1984;48.312;9.244;2022-10-22T04:20:36;11.30;99.90
3940;DHT22;1984;48.312;9.244;2022-10-22T04:23:01;11.30;99.90
3940;DHT22;1984;48.312;9.244;2022-10-22T04:25:27;11.30;99.90
3940;DHT22;1984;48.312;9.244;2022-10-22T04:27:52;11.40;99.90
3940;DHT22;1984;48.312;9.244;2022-10-22T04:30:18;11.40;99.90
3940;DHT22;1984;48.312;9.244;2022-10-22T04:32:43;11.50;99.90
3940;DHT22;1984;48.312;9.244;2022-10-22T04:35:09;11.50;99.90
3940;DHT22;1984;48.312;9.244;2022-10-22T04:37:34;11.50;99.90
3940;DHT22;1984;48.312;9.244;2022-10-22T04:40:00;11.40;99.90
3940;DHT22;1984;48.312;9.244;2022-10-22T04:42:25;11.40;99.90
3940;DHT22;1984;48.312;9.244;2022-10-22T04:44:51;11.40;99.90
3940;DHT22;1984;48.312;9.244;2022-10-22T04:47:17;11.50;99.90
3940;DHT22;1984;48.312;9.244;2022-10-22T04:49:42;11.40;99.90
3940;DHT22;1984;48.312;9.244;2022-10-22T04:52:08;11.40;99.90
3940;DHT22;1984;48.312;9.244;2022-10-22T04:54:33;11.40;99.90
3940;DHT22;1984;48.312;9.244;2022-10-22T04:56:59;11.40;99.90
3940;DHT22;1984;48.312;9.244;2022-10-22T04:59:24;11.40;99.90
3940;DHT22;1984;48.312;9.244;2022-10-22T05:01:50;11.30;99.90
3940;DHT22;1984;48.312;9.244;2022-10-22T05:04:16;11.40;99.90
3940;DHT22;1984;48.312;9.244;2022-10-22T05:06:44;11.40;99.90
3940;DHT22;1984;48.312;9.244;2022-10-22T05:09:15;11.40;99.90
3940;DHT22;1984;48.312;9.244;2022-10-22T05:11:42;11.40;99.90
3940;DHT22;1984;48.312;9.244;2022-10-22T05:14:10;11.40;99.90
3940;DHT22;1984;48.312;9.244;2022-10-22T05:16:36;11.30;99.90
3940;DHT22;1984;48.312;9.244;2022-10-22T05:19:03;11.40;99.90
3940;DHT22;1984;48.312;9.244;2022-10-22T05:21:29;11.40;99.90
3940;DHT22;1984;48.312;9.244;2022-10-22T05:23:56;11.40;99.90
3940;DHT22;1984;48.312;9.244;2022-10-22T05:26:24;11.40;99.90
3940;DHT22;1984;48.312;9.244;2022-10-22T05:28:50;11.40;99.90
3940;DHT22;1984;48.312;9.244;2022-10-22T05:31:16;11.40;99.90
3940;DHT22;1984;48.312;9.244;2022-10-22T05:33:42;11.40;99.90
3940;DHT22;1984;48.312;9.244;2022-10-22T05:36:12;11.40;99.90
3940;DHT22;1984;48.312;9.244;2022-10-22T05:38:38;11.50;99.90
3940;DHT22;1984;48.312;9.244;2022-10-22T05:41:10;11.40;99.90
3940;DHT22;1984;48.312;9.244;2022-10-22T05:43:36;11.50;99.90
3940;DHT22;1984;48.312;9.244;2022-10-22T05:46:04;11.50;99.90
3940;DHT22;1984;48.312;9.244;2022-10-22T05:48:30;11.40;99.90
3940;DHT22;1984;48.312;9.244;2022-10-22T05:50:56;11.40;99.90
3940;DHT22;1984;48.312;9.244;2022-10-22T05:53:22;11.40;99.90
3940;DHT22;1984;48.312;9.244;2022-10-22T05:55:47;11.40;99.90
3940;DHT22;1984;48.312;9.244;2022-10-22T05:58:13;11.40;99.90
3940;DHT22;1984;48.312;9.244;2022-10-22T06:00:39;11.40;99.90
3940;DHT22;1984;48.312;9.244;2022-10-22T06:03:05;11.40;99.90
3940;DHT22;1984;48.312;9.244;2022-10-22T06:05:34;11.50;99.90
3940;DHT22;1984;48.312;9.244;2022-10-22T06:08:00;11.50;99.90
3940;DHT22;1984;48.312;9.244;2022-10-22T06:10:26;11.50;99.90
3940;DHT22;1984;48.312;9.244;2022-10-22T06:12:52;11.50;99.90
3940;DHT22;1984;48.312;9.244;2022-10-22T06:15:18;11.50;99.90
3940;DHT22;1984;48.312;9.244;2022-10-22T06:17:45;11.50;99.90
3940;DHT22;1984;48.312;9.244;2022-10-22T06:20:11;11.70;99.90
3940;DHT22;1984;48.312;9.244;2022-10-22T06:22:37;11.80;99.90
3940;DHT22;1984;48.312;9.244;2022-10-22T06:25:03;11.80;99.90
3940;DHT22;1984;48.312;9.244;2022-10-22T06:27:29;11.80;99.90
3940;DHT22;1984;48.312;9.244;2022-10-22T06:29:54;11.90;99.90
3940;DHT22;1984;48.312;9.244;2022-10-22T06:32:20;11.80;99.90
3940;DHT22;1984;48.312;9.244;2022-10-22T06:34:46;11.70;99.90
3940;DHT22;1984;48.312;9.244;2022-10-22T06:37:12;11.70;99.90
3940;DHT22;1984;48.312;9.244;2022-10-22T06:39:39;11.80;99.90
3940;DHT22;1984;48.312;9.244;2022-10-22T06:42:05;11.80;99.90
3940;DHT22;1984;48.312;9.244;2022-10-22T06:44:31;11.80;99.90
3940;DHT22;1984;48.312;9.244;2022-10-22T06:46:57;11.80;99.90
3940;DHT22;1984;48.312;9.244;2022-10-22T06:49:22;11.80;99.90
3940;DHT22;1984;48.312;9.244;2022-10-22T06:51:49;11.90;99.90
3940;DHT22;1984;48.312;9.244;2022-10-22T06:54:15;11.80;99.90
3940;DHT22;1984;48.312;9.244;2022-10-22T06:56:41;11.90;99.90
3940;DHT22;1984;48.312;9.244;2022-10-22T06:59:12;11.90;99.90
3940;DHT22;1984;48.312;9.244;2022-10-22T07:01:47;11.90;99.90
3940;DHT22;1984;48.312;9.244;2022-10-22T07:04:13;12.00;99.90
3940;DHT22;1984;48.312;9.244;2022-10-22T07:06:38;12.00;99.90
3940;DHT22;1984;48.312;9.244;2022-10-22T07:09:04;12.10;99.90
3940;DHT22;1984;48.312;9.244;2022-10-22T07:11:36;12.10;99.90
3940;DHT22;1984;48.312;9.244;2022-10-22T07:14:04;12.10;99.90
3940;DHT22;1984;48.312;9.244;2022-10-22T07:16:29;12.10;99.90
3940;DHT22;1984;48.312;9.244;2022-10-22T07:18:55;12.20;99.90
3940;DHT22;1984;48.312;9.244;2022-10-22T07:21:20;12.30;99.90
3940;DHT22;1984;48.312;9.244;2022-10-22T07:23:47;12.40;99.90
3940;DHT22;1984;48.312;9.244;2022-10-22T07:26:14;12.40;99.90
3940;DHT22;1984;48.312;9.244;2022-10-22T07:28:40;12.40;99.90
3940;DHT22;1984;48.312;9.244;2022-10-22T07:31:08;12.50;99.90
3940;DHT22;1984;48.312;9.244;2022-10-22T07:33:34;12.40;99.90
3940;DHT22;1984;48.312;9.244;2022-10-22T07:36:03;12.50;99.90
3940;DHT22;1984;48.312;9.244;2022-10-22T07:38:29;12.50;99.90
3940;DHT22;1984;48.312;9.244;2022-10-22T07:40:56;12.50;99.90
3940;DHT22;1984;48.312;9.244;2022-10-22T07:43:22;12.50;99.90
3940;DHT22;1984;48.312;9.244;2022-10-22T07:45:47;12.60;99.90
3940;DHT22;1984;48.312;9.244;2022-10-22T07:48:13;12.60;99.90
3940;DHT22;1984;48.312;9.244;2022-10-22T07:50:39;12.70;99.90
3940;DHT22;1984;48.312;9.244;2022-10-22T07:53:04;12.70;99.90
3940;DHT22;1984;48.312;9.244;2022-10-22T07:55:30;12.70;99.90
3940;DHT22;1984;48.312;9.244;2022-10-22T07:57:55;12.80;99.90
3940;DHT22;1984;48.312;9.244;2022-10-22T08:00:21;12.80;99.90
3940;DHT22;1984;48.312;9.244;2022-10-22T08:02:46;12.80;99.90
3940;DHT22;1984;48.312;9.244;2022-10-22T08:05:12;12.90;99.90
3940;DHT22;1984;48.312;9.244;2022-10-22T08:07:39;13.00;99.90
3940;DHT22;1984;48.312;9.244;2022-10-22T08:10:05;13.10;99.90
3940;DHT22;1984;48.312;9.244;2022-10-22T08:12:30;13.30;99.90
3940;DHT22;1984;48.312;9.244;2022-10-22T08:14:56;13.80;99.90
3940;DHT22;1984;48.312;9.244;2022-10-22T08:17:22;14.50;99.90
3940;DHT22;1984;48.312;9.244;2022-10-22T08:19:47;14.80;99.90
3940;DHT22;1984;48.312;9.244;2022-10-22T08:22:13;15.20;99.90
3940;DHT22;1984;48.312;9.244;2022-10-22T08:24:38;15.60;99.90
3940;DHT22;1984;48.312;9.244;2022-10-22T08:27:04;16.90;99.90
3940;DHT22;1984;48.312;9.244;2022-10-22T08:29:29;18.90;99.90
3940;DHT22;1984;48.312;9.244;2022-10-22T08:31:55;20.40;99.90
3940;DHT22;1984;48.312;9.244;2022-10-22T08:34:20;22.00;99.90
3940;DHT22;1984;48.312;9.244;2022-10-22T08:36:46;23.30;99.90
3940;DHT22;1984;48.312;9.244;2022-10-22T08:39:12;24.10;99.90
3940;DHT22;1984;48.312;9.244;2022-10-22T08:44:40;25.80;99.90
3940;DHT22;1984;48.312;9.244;2022-10-22T08:47:34;26.50;99.90
3940;DHT22;1984;48.312;9.244;2022-10-22T08:50:02;26.90;99.90
3940;DHT22;1984;48.312;9.244;2022-10-22T08:52:29;27.20;99.90
3940;DHT22;1984;48.312;9.244;2022-10-22T08:54:58;27.50;99.90
3940;DHT22;1984;48.312;9.244;2022-10-22T08:57:30;27.90;99.90
3940;DHT22;1984;48.312;9.244;2022-10-22T09:00:12;28.00;99.90
3940;DHT22;1984;48.312;9.244;2022-10-22T09:02:59;28.30;99.90
3940;DHT22;1984;48.312;9.244;2022-10-22T09:08:14;28.90;99.90
3940;DHT22;1984;48.312;9.244;2022-10-22T09:10:46;28.60;99.60
3940;DHT22;1984;48.312;9.244;2022-10-22T09:13:16;28.40;98.60
3940;DHT22;1984;48.312;9.244;2022-10-22T09:15:48;28.50;99.10
3940;DHT22;1984;48.312;9.244;2022-10-22T09:18:35;28.50;99.30
3940;DHT22;1984;48.312;9.244;2022-10-22T09:21:25;27.80;98.80
3940;DHT22;1984;48.312;9.244;2022-10-22T09:26:31;25.70;99.90
3940;DHT22;1984;48.312;9.244;2022-10-22T09:28:59;25.90;99.90
3940;DHT22;1984;48.312;9.244;2022-10-22T09:31:26;25.90;99.90
3940;DHT22;1984;48.312;9.244;2022-10-22T09:33:53;25.20;99.90
3940;DHT22;1984;48.312;9.244;2022-10-22T09:36:21;24.40;99.90
3940;DHT22;1984;48.312;9.244;2022-10-22T09:38:49;23.80;99.90
3940;DHT22;1984;48.312;9.244;2022-10-22T09:41:16;23.40;99.90
3940;DHT22;1984;48.312;9.244;2022-10-22T09:43:46;22.80;99.90
3940;DHT22;1984;48.312;9.244;2022-10-22T09:46:21;22.60;99.90
3940;DHT22;1984;48.312;9.244;2022-10-22T09:48:59;22.20;99.90
3940;DHT22;1984;48.312;9.244;2022-10-22T09:51:49;22.60;99.90
3940;DHT22;1984;48.312;9.244;2022-10-22T09:54:19;22.40;99.90
3940;DHT22;1984;48.312;9.244;2022-10-22T09:56:55;21.50;99.90
3940;DHT22;1984;48.312;9.244;2022-10-22T09:59:30;20.90;99.90
3940;DHT22;1984;48.312;9.244;2022-10-22T10:02:02;20.30;99.90
3940;DHT22;1984;48.312;9.244;2022-10-22T10:04:33;19.70;99.90
3940;DHT22;1984;48.312;9.244;2022-10-22T10:06:59;20.10;99.90
3940;DHT22;1984;48.312;9.244;2022-10-22T10:09:25;22.10;99.90
3940;DHT22;1984;48.312;9.244;2022-10-22T10:23:39;23.40;99.90
3940;DHT22;1984;48.312;9.244;2022-10-22T10:32:01;22.50;99.90
3940;DHT22;1984;48.312;9.244;2022-10-22T10:34:50;21.60;99.90
3940;DHT22;1984;48.312;9.244;2022-10-22T10:37:24;21.00;99.90
3940;DHT22;1984;48.312;9.244;2022-10-22T10:53:24;18.70;99.90
3940;DHT22;1984;48.312;9.244;2022-10-22T10:56:20;18.50;99.90
3940;DHT22;1984;48.312;9.244;2022-10-22T11:06:57;19.90;99.90
3940;DHT22;1984;48.312;9.244;2022-10-22T11:09:47;20.10;99.90
3940;DHT22;1984;48.312;9.244;2022-10-22T11:12:20;19.80;99.90
3940;DHT22;1984;48.312;9.244;2022-10-22T11:17:20;20.10;99.90
3940;DHT22;1984;48.312;9.244;2022-10-22T11:20:02;19.90;99.90
3940;DHT22;1984;48.312;9.244;2022-10-22T11:22:39;19.70;99.90
3940;DHT22;1984;48.312;9.244;2022-10-22T11:27:56;19.40;99.90
3940;DHT22;1984;48.312;9.244;2022-10-22T11:30:27;19.50;99.90
3940;DHT22;1984;48.312;9.244;2022-10-22T11:32:57;19.80;99.90
3940;DHT22;1984;48.312;9.244;2022-10-22T11:35:36;20.20;99.90
3940;DHT22;1984;48.312;9.244;2022-10-22T11:38:04;20.70;99.90
3940;DHT22;1984;48.312;9.244;2022-10-22T11:40:36;21.00;99.90
3940;DHT22;1984;48.312;9.244;2022-10-22T11:43:09;21.30;99.90
3940;DHT22;1984;48.312;9.244;2022-10-22T11:45:36;21.40;99.90
3940;DHT22;1984;48.312;9.244;2022-10-22T11:48:17;21.30;99.90
3940;DHT22;1984;48.312;9.244;2022-10-22T11:53:37;21.20;99.90
3940;DHT22;1984;48.312;9.244;2022-10-22T12:03:41;19.80;99.90
3940;DHT22;1984;48.312;9.244;2022-10-22T12:11:39;19.00;99.90
3940;DHT22;1984;48.312;9.244;2022-10-22T12:14:25;18.70;99.90
3940;DHT22;1984;48.312;9.244;2022-10-22T12:19:29;18.60;99.90
3940;DHT22;1984;48.312;9.244;2022-10-22T12:24:31;18.70;99.90
3940;DHT22;1984;48.312;9.244;2022-10-22T12:26:58;18.90;99.90
3940;DHT22;1984;48.312;9.244;2022-10-22T12:29:24;19.00;99.90
3940;DHT22;1984;48.312;9.244;2022-10-22T12:31:51;19.10;99.90
3940;DHT22;1984;48.312;9.244;2022-10-22T12:34:21;19.20;99.90
3940;DHT22;1984;48.312;9.244;2022-10-22T12:36:49;19.20;99.90
3940;DHT22;1984;48.312;9.244;2022-10-22T12:39:18;19.10;99.90
3940;DHT22;1984;48.312;9.244;2022-10-22T12:41:44;19.20;99.90
3940;DHT22;1984;48.312;9.244;2022-10-22T12:44:16;19.00;99.90
3940;DHT22;1984;48.312;9.244;2022-10-22T12:46:43;19.00;99.90
3940;DHT22;1984;48.312;9.244;2022-10-22T12:49:21;19.10;99.90
3940;DHT22;1984;48.312;9.244;2022-10-22T12:51:47;19.00;99.90
3940;DHT22;1984;48.312;9.244;2022-10-22T12:54:25;19.00;99.90
3940;DHT22;1984;48.312;9.244;2022-10-22T12:56:52;19.00;99.90
3940;DHT22;1984;48.312;9.244;2022-10-22T12:59:37;19.00;99.90
3940;DHT22;1984;48.312;9.244;2022-10-22T13:02:19;19.20;99.90
3940;DHT22;1984;48.312;9.244;2022-10-22T13:07:43;19.40;99.90
3940;DHT22;1984;48.312;9.244;2022-10-22T13:10:38;19.40;99.90
3940;DHT22;1984;48.312;9.244;2022-10-22T13:13:05;19.40;99.90
3940;DHT22;1984;48.312;9.244;2022-10-22T13:15:34;19.30;99.90
3940;DHT22;1984;48.312;9.244;2022-10-22T13:18:15;19.20;99.90
3940;DHT22;1984;48.312;9.244;2022-10-22T13:20:55;19.20;99.90
3940;DHT22;1984;48.312;9.244;2022-10-22T13:23:25;19.20;99.90
3940;DHT22;1984;48.312;9.244;2022-10-22T13:28:36;19.10;99.90
3940;DHT22;1984;48.312;9.244;2022-10-22T13:31:22;19.20;99.90
3940;DHT22;1984;48.312;9.244;2022-10-22T13:33:56;19.10;99.90
3940;DHT22;1984;48.312;9.244;2022-10-22T13:36:23;19.10;99.90
3940;DHT22;1984;48.312;9.244;2022-10-22T13:38:49;19.20;99.90
3940;DHT22;1984;48.312;9.244;2022-10-22T13:41:26;19.20;99.90
3940;DHT22;1984;48.312;9.244;2022-10-22T13:43:52;19.30;99.90
3940;DHT22;1984;48.312;9.244;2022-10-22T13:46:19;19.30;99.90
3940;DHT22;1984;48.312;9.244;2022-10-22T13:48:46;19.20;99.90
3940;DHT22;1984;48.312;9.244;2022-10-22T13:51:15;19.10;99.90
3940;DHT22;1984;48.312;9.244;2022-10-22T13:53:42;19.10;99.90
3940;DHT22;1984;48.312;9.244;2022-10-22T13:56:16;19.10;99.90
3940;DHT22;1984;48.312;9.244;2022-10-22T13:58:42;19.10;99.90
3940;DHT22;1984;48.312;9.244;2022-10-22T14:03:41;19.10;99.90
3940;DHT22;1984;48.312;9.244;2022-10-22T14:06:12;19.10;99.90
3940;DHT22;1984;48.312;9.244;2022-10-22T14:08:38;19.10;99.90
3940;DHT22;1984;48.312;9.244;2022-10-22T14:11:04;19.10;99.90
3940;DHT22;1984;48.312;9.244;2022-10-22T14:13:29;19.10;99.90
3940;DHT22;1984;48.312;9.244;2022-10-22T14:15:55;19.10;99.90
3940;DHT22;1984;48.312;9.244;2022-10-22T14:18:23;19.10;99.90
3940;DHT22;1984;48.312;9.244;2022-10-22T14:20:53;19.10;99.90
3940;DHT22;1984;48.312;9.244;2022-10-22T14:23:20;19.10;99.90
3940;DHT22;1984;48.312;9.244;2022-10-22T14:25:47;19.10;99.90
3940;DHT22;1984;48.312;9.244;2022-10-22T14:28:13;19.10;99.90
3940;DHT22;1984;48.312;9.244;2022-10-22T14:30:39;19.20;99.90
3940;DHT22;1984;48.312;9.244;2022-10-22T14:33:15;19.20;99.90
3940;DHT22;1984;48.312;9.244;2022-10-22T14:35:41;19.30;99.90
3940;DHT22;1984;48.312;9.244;2022-10-22T14:38:07;19.20;99.90
3940;DHT22;1984;48.312;9.244;2022-10-22T14:40:33;19.20;99.90
3940;DHT22;1984;48.312;9.244;2022-10-22T14:42:58;19.20;99.90
3940;DHT22;1984;48.312;9.244;2022-10-22T14:45:26;19.30;99.90
3940;DHT22;1984;48.312;9.244;2022-10-22T14:47:52;19.30;99.90
3940;DHT22;1984;48.312;9.244;2022-10-22T14:50:22;19.20;99.90
3940;DHT22;1984;48.312;9.244;2022-10-22T14:52:49;19.10;99.90
3940;DHT22;1984;48.312;9.244;2022-10-22T14:55:16;19.10;99.90
3940;DHT22;1984;48.312;9.244;2022-10-22T14:57:42;19.20;99.90
3940;DHT22;1984;48.312;9.244;2022-10-22T15:00:13;19.10;99.90
3940;DHT22;1984;48.312;9.244;2022-10-22T15:02:39;19.10;99.90
3940;DHT22;1984;48.312;9.244;2022-10-22T15:05:05;19.10;99.90
3940;DHT22;1984;48.312;9.244;2022-10-22T15:07:31;19.10;99.90
3940;DHT22;1984;48.312;9.244;2022-10-22T15:09:57;19.10;99.90
3940;DHT22;1984;48.312;9.244;2022-10-22T15:12:22;19.00;99.90
3940;DHT22;1984;48.312;9.244;2022-10-22T15:14:48;19.00;99.90
3940;DHT22;1984;48.312;9.244;2022-10-22T15:17:15;19.00;99.90
3940;DHT22;1984;48.312;9.244;2022-10-22T15:19:41;19.00;99.90
3940;DHT22;1984;48.312;9.244;2022-10-22T15:22:08;19.00;99.90
3940;DHT22;1984;48.312;9.244;2022-10-22T15:24:34;19.00;99.90
3940;DHT22;1984;48.312;9.244;2022-10-22T15:26:59;18.90;99.90
3940;DHT22;1984;48.312;9.244;2022-10-22T15:29:25;18.90;99.90
3940;DHT22;1984;48.312;9.244;2022-10-22T15:31:53;18.80;99.90
3940;DHT22;1984;48.312;9.244;2022-10-22T15:34:27;18.80;99.90
3940;DHT22;1984;48.312;9.244;2022-10-22T15:36:55;18.80;99.90
3940;DHT22;1984;48.312;9.244;2022-10-22T15:39:21;18.60;99.90
3940;DHT22;1984;48.312;9.244;2022-10-22T15:41:48;18.60;99.90
3940;DHT22;1984;48.312;9.244;2022-10-22T15:44:20;18.50;99.90
3940;DHT22;1984;48.312;9.244;2022-10-22T15:46:46;18.30;99.90
3940;DHT22;1984;48.312;9.244;2022-10-22T15:49:12;18.20;99.90
3940;DHT22;1984;48.312;9.244;2022-10-22T15:51:38;18.00;99.90
3940;DHT22;1984;48.312;9.244;2022-10-22T15:54:04;17.90;99.90
3940;DHT22;1984;48.312;9.244;2022-10-22T15:56:31;17.70;99.90
3940;DHT22;1984;48.312;9.244;2022-10-22T15:59:01;17.50;99.90
3940;DHT22;1984;48.312;9.244;2022-10-22T16:01:29;17.30;99.90
3940;DHT22;1984;48.312;9.244;2022-10-22T16:03:55;17.10;99.90
3940;DHT22;1984;48.312;9.244;2022-10-22T16:06:33;17.00;99.90
3940;DHT22;1984;48.312;9.244;2022-10-22T16:09:00;16.80;99.90
3940;DHT22;1984;48.312;9.244;2022-10-22T16:11:28;16.50;99.90
3940;DHT22;1984;48.312;9.244;2022-10-22T16:13:58;16.40;99.90
3940;DHT22;1984;48.312;9.244;2022-10-22T16:16:26;16.30;99.90
3940;DHT22;1984;48.312;9.244;2022-10-22T16:18:52;16.10;99.90
3940;DHT22;1984;48.312;9.244;2022-10-22T16:21:19;16.00;99.90
3940;DHT22;1984;48.312;9.244;2022-10-22T16:23:45;15.90;99.90
3940;DHT22;1984;48.312;9.244;2022-10-22T16:26:12;15.80;99.90
3940;DHT22;1984;48.312;9.244;2022-10-22T16:28:39;15.70;99.90
3940;DHT22;1984;48.312;9.244;2022-10-22T16:31:06;15.50;99.90
3940;DHT22;1984;48.312;9.244;2022-10-22T16:33:34;15.40;99.90
3940;DHT22;1984;48.312;9.244;2022-10-22T16:35:59;15.30;99.90
3940;DHT22;1984;48.312;9.244;2022-10-22T16:38:26;15.20;99.90
3940;DHT22;1984;48.312;9.244;2022-10-22T16:40:51;15.00;99.90
3940;DHT22;1984;48.312;9.244;2022-10-22T16:43:17;14.90;99.90
3940;DHT22;1984;48.312;9.244;2022-10-22T16:45:49;14.80;99.90
3940;DHT22;1984;48.312;9.244;2022-10-22T16:48:18;14.70;99.90
3940;DHT22;1984;48.312;9.244;2022-10-22T16:50:44;14.60;99.90
3940;DHT22;1984;48.312;9.244;2022-10-22T16:53:10;14.50;99.90
3940;DHT22;1984;48.312;9.244;2022-10-22T16:55:37;14.50;99.90
3940;DHT22;1984;48.312;9.244;2022-10-22T16:58:03;14.30;99.90
3940;DHT22;1984;48.312;9.244;2022-10-22T17:00:28;14.30;99.90
3940;DHT22;1984;48.312;9.244;2022-10-22T17:02:54;14.20;99.90
3940;DHT22;1984;48.312;9.244;2022-10-22T17:05:20;14.20;99.90
3940;DHT22;1984;48.312;9.244;2022-10-22T17:07:46;14.00;99.90
3940;DHT22;1984;48.312;9.244;2022-10-22T17:10:12;14.00;99.90
3940;DHT22;1984;48.312;9.244;2022-10-22T17:12:37;13.80;99.90
3940;DHT22;1984;48.312;9.244;2022-10-22T17:15:04;13.80;99.90
3940;DHT22;1984;48.312;9.244;2022-10-22T17:17:31;13.80;99.90
3940;DHT22;1984;48.312;9.244;2022-10-22T17:19:56;13.70;99.90
3940;DHT22;1984;48.312;9.244;2022-10-22T17:22:23;13.70;99.90
3940;DHT22;1984;48.312;9.244;2022-10-22T17:25:16;13.60;99.90
3940;DHT22;1984;48.312;9.244;2022-10-22T17:27:43;13.50;99.90
3940;DHT22;1984;48.312;9.244;2022-10-22T17:30:14;13.40;99.90
3940;DHT22;1984;48.312;9.244;2022-10-22T17:32:39;13.30;99.90
3940;DHT22;1984;48.312;9.244;2022-10-22T17:35:06;13.30;99.90
3940;DHT22;1984;48.312;9.244;2022-10-22T17:37:33;13.20;99.90
3940;DHT22;1984;48.312;9.244;2022-10-22T17:39:58;13.20;99.90
3940;DHT22;1984;48.312;9.244;2022-10-22T17:42:26;13.10;99.90
3940;DHT22;1984;48.312;9.244;2022-10-22T17:44:52;13.00;99.90
3940;DHT22;1984;48.312;9.244;2022-10-22T17:47:18;13.00;99.90
3940;DHT22;1984;48.312;9.244;2022-10-22T17:49:43;12.90;99.90
3940;DHT22;1984;48.312;9.244;2022-10-22T17:52:09;12.80;99.90
3940;DHT22;1984;48.312;9.244;2022-10-22T17:54:37;12.80;99.90
3940;DHT22;1984;48.312;9.244;2022-10-22T17:57:02;12.70;99.90
3940;DHT22;1984;48.312;9.244;2022-10-22T17:59:28;12.70;99.90